Time;durP1;ratioP1;P1;durP2;ratioP2;P2;SDS_P1;SDS_P2;PMS_P1;PMS_P2;Temp;Humidity;BMP_temperature;BMP_pressure;BME280_temperature;BME280_humidity;BME280_pressure;Samples;Min_cycle;Max_cycle;Signal;HPM_P1;HPM_P2
2022/07/27 00:01:21;;;;;;;23.27;19.23;;;;;;;23.36;53.19;98765.13;5051462;28;20025;-81
2022/07/27 00:03:47;;;;;;;24.88;18.52;;;;;;;23.69;52.23;98764.41;5051264;28;20139;-80
2022/07/27 00:06:13;;;;;;;21.60;17.95;;;;;;;23.45;52.53;98758.81;5062553;28;20020;-81
2022/07/27 00:08:38;;;;;;;21.90;18.45;;;;;;;23.21;53.33;98764.56;5071535;28;20028;-81
2022/07/27 00:11:04;;;;;;;25.23;19.05;;;;;;;23.19;53.61;98766.28;5065288;28;20502;-81
2022/07/27 00:13:30;;;;;;;23.33;19.70;;;;;;;23.18;53.45;98776.06;5072353;28;20031;-80
2022/07/27 00:15:56;;;;;;;25.98;18.25;;;;;;;22.98;54.05;98780.50;5072357;28;20029;-81
2022/07/27 00:18:22;;;;;;;24.60;18.30;;;;;;;22.78;54.75;98779.69;5071168;28;20038;-80
2022/07/27 00:20:47;;;;;;;25.00;17.80;;;;;;;22.89;54.59;98777.44;5071874;28;20016;-81
2022/07/27 00:23:13;;;;;;;40.67;18.63;;;;;;;22.71;54.82;98774.94;5072354;28;20024;-83
2022/07/27 00:25:39;;;;;;;22.98;18.50;;;;;;;22.66;54.94;98766.84;5071238;28;20035;-80
2022/07/27 00:28:05;;;;;;;27.42;20.65;;;;;;;22.77;54.39;98775.22;5071082;28;20024;-81
2022/07/27 00:30:30;;;;;;;22.25;18.45;;;;;;;22.68;54.24;98778.63;5070753;28;20024;-81
2022/07/27 00:32:56;;;;;;;25.50;19.17;;;;;;;22.78;54.16;98788.25;5072427;28;20024;-81
2022/07/27 00:35:22;;;;;;;23.45;17.17;;;;;;;22.97;53.67;98795.22;5072635;28;20396;-81
2022/07/27 00:37:47;;;;;;;22.00;18.77;;;;;;;22.77;54.55;98790.28;5072424;28;20449;-82
2022/07/27 00:40:13;;;;;;;21.75;17.38;;;;;;;23.08;54.09;98786.44;5072261;28;20115;-82
2022/07/27 00:42:38;;;;;;;20.90;17.58;;;;;;;23.44;52.80;98784.94;5072348;28;20094;-83
2022/07/27 00:45:04;;;;;;;19.98;17.88;;;;;;;23.57;52.12;98791.59;5071552;28;20128;-83
2022/07/27 00:47:30;;;;;;;22.00;18.02;;;;;;;23.47;52.24;98792.63;5055599;28;20024;-82
2022/07/27 00:49:56;;;;;;;20.70;17.77;;;;;;;23.82;51.76;98785.31;5062868;28;20052;-82
2022/07/27 00:52:22;;;;;;;19.42;16.83;;;;;;;23.91;51.06;98781.03;5071061;28;20094;-82
2022/07/27 00:54:48;;;;;;;24.20;16.48;;;;;;;23.94;51.14;98797.28;5070024;28;20039;-82
2022/07/27 00:57:15;;;;;;;21.98;17.55;;;;;;;24.11;50.50;98781.00;5071926;28;20052;-82
2022/07/27 00:59:41;;;;;;;22.67;17.40;;;;;;;24.30;50.05;98787.09;5071977;28;20036;-82
2022/07/27 01:02:07;;;;;;;22.05;16.30;;;;;;;24.53;49.87;98792.63;5071372;28;20024;-82
2022/07/27 01:04:33;;;;;;;20.83;16.77;;;;;;;24.58;49.28;98790.47;5070265;28;20035;-83
2022/07/27 01:06:59;;;;;;;23.77;16.65;;;;;;;24.32;49.78;98796.84;5072096;28;20025;-82
2022/07/27 01:12:18;;;;;;;27.48;18.33;;;;;;;23.64;51.89;98790.63;5072329;28;20044;-82
2022/07/27 01:14:44;;;;;;;28.00;18.45;;;;;;;23.27;53.21;98793.41;5070806;28;20459;-82
2022/07/27 01:17:09;;;;;;;27.75;18.33;;;;;;;22.84;54.41;98797.88;5069932;28;20033;-82
2022/07/27 01:19:35;;;;;;;23.95;18.70;;;;;;;23.26;53.48;98792.59;5071941;28;20032;-83
2022/07/27 01:22:05;;;;;;;23.02;18.20;;;;;;;23.54;52.54;98789.63;5070770;28;20032;-83
2022/07/27 01:24:31;;;;;;;19.55;17.45;;;;;;;23.89;51.91;98792.13;5069370;28;20036;-83
2022/07/27 01:26:59;;;;;;;19.65;16.60;;;;;;;24.12;50.96;98791.19;5071907;28;20406;-82
2022/07/27 01:29:24;;;;;;;20.33;17.00;;;;;;;23.72;51.59;98792.09;5071898;28;20391;-82
2022/07/27 01:31:50;;;;;;;26.65;17.60;;;;;;;23.67;52.13;98790.56;5069679;28;20021;-82
2022/07/27 01:34:15;;;;;;;26.15;18.13;;;;;;;23.65;52.46;98789.38;5071943;28;20435;-81
2022/07/27 01:36:41;;;;;;;23.33;18.63;;;;;;;23.68;52.27;98791.34;5068072;28;20063;-82
2022/07/27 01:39:06;;;;;;;24.45;17.52;;;;;;;23.86;51.94;98795.88;5050355;28;20108;-82
2022/07/27 01:41:32;;;;;;;21.17;17.52;;;;;;;23.94;51.82;98788.72;5064325;28;20024;-83
2022/07/27 01:43:57;;;;;;;24.13;18.27;;;;;;;24.02;51.92;98801.59;5071682;28;20044;-82
2022/07/27 01:46:23;;;;;;;23.40;18.33;;;;;;;24.02;51.71;98792.22;5071440;28;20025;-82
2022/07/27 01:48:48;;;;;;;22.65;16.88;;;;;;;23.73;52.33;98787.16;5070277;28;20024;-82
2022/07/27 01:51:14;;;;;;;24.23;18.55;;;;;;;23.32;53.73;98801.47;5071891;28;20078;-82
2022/07/27 01:53:39;;;;;;;25.75;18.15;;;;;;;23.38;53.60;98790.38;5071812;28;20471;-82
2022/07/27 01:56:09;;;;;;;21.25;18.45;;;;;;;23.50;53.21;98797.44;5070848;28;20077;-83
2022/07/27 01:58:36;;;;;;;22.08;18.67;;;;;;;23.16;54.08;98801.34;5070288;28;20040;-82
2022/07/27 02:01:02;;;;;;;25.50;18.48;;;;;;;22.93;54.60;98805.88;5071418;28;20463;-83
2022/07/27 02:03:27;;;;;;;25.50;18.75;;;;;;;23.29;53.68;98799.50;5070964;28;20032;-82
2022/07/27 02:05:53;;;;;;;27.92;20.20;;;;;;;23.36;53.26;98805.06;5071417;28;20032;-82
2022/07/27 02:08:18;;;;;;;28.10;20.98;;;;;;;23.13;53.86;98798.13;5070040;28;20035;-83
2022/07/27 02:13:27;;;;;;;28.95;20.35;;;;;;;22.16;56.15;98803.47;5051486;28;20115;-83
2022/07/27 02:15:53;;;;;;;25.10;20.88;;;;;;;21.79;56.68;98793.88;5051122;28;20025;-83
2022/07/27 02:18:19;;;;;;;25.42;19.98;;;;;;;22.09;56.14;98803.59;5051412;28;20039;-83
2022/07/27 02:20:44;;;;;;;24.55;18.20;;;;;;;22.34;55.29;98793.84;5051521;28;20025;-83
2022/07/27 02:23:10;;;;;;;30.63;19.73;;;;;;;22.42;55.07;98801.84;5051352;28;20039;-83
2022/07/27 02:25:36;;;;;;;27.75;19.50;;;;;;;22.15;55.37;98818.94;5050077;28;20422;-83
2022/07/27 02:28:02;;;;;;;26.55;19.75;;;;;;;22.10;55.58;98813.75;5050034;28;20028;-82
2022/07/27 02:30:28;;;;;;;25.33;21.13;;;;;;;22.20;55.53;98818.44;5049779;28;20102;-83
2022/07/27 02:32:53;;;;;;;32.55;21.45;;;;;;;21.72;56.88;98824.03;5051072;28;20021;-83
2022/07/27 02:35:19;;;;;;;26.25;22.30;;;;;;;21.14;58.90;98813.34;5051058;28;20090;-84
2022/07/27 02:37:44;;;;;;;28.85;21.48;;;;;;;21.43;58.35;98815.84;5050931;28;20029;-82
2022/07/27 02:40:11;;;;;;;23.92;20.63;;;;;;;21.82;57.11;98816.59;5066400;28;20040;-83
2022/07/27 02:42:36;;;;;;;26.30;19.95;;;;;;;21.90;56.81;98822.16;5068987;28;20028;-83
2022/07/27 02:45:02;;;;;;;31.70;21.20;;;;;;;21.59;57.54;98808.72;5072016;28;20060;-83
2022/07/27 02:47:28;;;;;;;40.63;21.60;;;;;;;21.56;58.09;98829.50;5074557;28;20017;-83
2022/07/27 02:49:53;;;;;;;30.13;22.83;;;;;;;21.43;58.48;98813.00;5074591;28;20047;-83
2022/07/27 02:52:19;;;;;;;32.42;22.77;;;;;;;21.27;58.51;98812.78;5074578;28;20024;-82
2022/07/27 02:54:44;;;;;;;31.65;22.55;;;;;;;20.95;59.79;98831.81;5074766;28;20025;-83
2022/07/27 02:57:10;;;;;;;27.03;22.80;;;;;;;21.00;60.08;98836.25;5055110;28;20080;-82
2022/07/27 02:59:35;;;;;;;30.33;22.88;;;;;;;20.92;60.26;98829.81;5055398;28;20043;-83
2022/07/27 03:02:01;;;;;;;38.78;24.02;;;;;;;20.79;60.68;98820.16;5073133;28;20032;-83
2022/07/27 03:04:26;;;;;;;32.38;23.75;;;;;;;20.81;60.86;98832.75;5074543;28;20554;-84
2022/07/27 03:06:52;;;;;;;39.55;25.83;;;;;;;20.67;61.31;98845.03;5072796;28;20029;-84
2022/07/27 03:09:17;;;;;;;58.03;25.90;;;;;;;20.61;61.67;98841.81;5072986;28;20021;-82
2022/07/27 03:11:43;;;;;;;31.25;24.25;;;;;;;20.30;62.76;98853.03;5073035;28;20035;-83
2022/07/27 03:14:08;;;;;;;34.60;26.38;;;;;;;20.12;63.41;98843.81;5073314;28;20024;-83
2022/07/27 03:16:34;;;;;;;41.08;26.50;;;;;;;19.90;64.53;98858.13;5072895;28;20475;-83
2022/07/27 03:18:59;;;;;;;42.08;25.98;;;;;;;19.71;65.22;98846.06;5072820;28;20090;-83
2022/07/27 03:21:25;;;;;;;40.33;25.92;;;;;;;19.91;64.49;98848.41;5074145;28;20029;-83
2022/07/27 03:23:50;;;;;;;31.98;24.98;;;;;;;19.81;64.82;98850.06;5055906;28;20028;-83
2022/07/27 03:26:17;;;;;;;35.65;23.77;;;;;;;19.81;64.87;98860.63;5073902;28;20020;-83
2022/07/27 03:28:43;;;;;;;33.60;23.77;;;;;;;19.71;64.90;98854.56;5073946;28;20460;-84
2022/07/27 03:31:09;;;;;;;27.98;21.13;;;;;;;19.80;64.56;98868.31;5074000;28;20031;-83
2022/07/27 03:33:35;;;;;;;27.85;20.60;;;;;;;19.88;64.46;98871.91;5074090;28;20024;-83
2022/07/27 03:36:01;;;;;;;25.00;19.27;;;;;;;20.03;63.82;98867.81;5074109;28;20467;-83
2022/07/27 03:38:26;;;;;;;22.10;19.67;;;;;;;20.04;64.13;98877.94;5057682;28;20037;-83
2022/07/27 03:40:52;;;;;;;28.80;21.67;;;;;;;20.00;64.34;98873.50;5052483;28;20087;-84
2022/07/27 03:43:17;;;;;;;28.58;20.95;;;;;;;20.15;63.88;98874.22;5066868;28;20090;-84
2022/07/27 03:45:43;;;;;;;32.83;22.35;;;;;;;20.11;64.53;98879.13;5065050;28;20149;-84
2022/07/27 03:48:09;;;;;;;33.88;22.92;;;;;;;20.13;64.82;98883.16;5073050;28;20020;-83
2022/07/27 03:50:34;;;;;;;30.30;22.83;;;;;;;20.16;65.07;98887.22;5072326;28;20027;-84
2022/07/27 03:53:00;;;;;;;27.88;23.33;;;;;;;20.08;65.64;98880.75;5070540;28;20498;-83
2022/07/27 03:55:26;;;;;;;40.63;23.75;;;;;;;20.10;65.99;98878.31;5052687;28;20098;-83
2022/07/27 03:57:52;;;;;;;31.20;22.20;;;;;;;20.12;66.06;98877.88;5056368;28;20408;-84
2022/07/27 04:00:18;;;;;;;33.05;23.73;;;;;;;20.12;66.01;98872.22;5053558;28;20086;-81
2022/07/27 04:02:44;;;;;;;31.52;23.20;;;;;;;20.13;66.32;98882.34;5053364;28;20025;-82
2022/07/27 04:05:10;;;;;;;46.42;23.02;;;;;;;20.22;65.97;98885.53;5053021;28;20031;-83
2022/07/27 04:07:36;;;;;;;33.25;24.98;;;;;;;20.24;65.83;98891.59;5053424;28;20104;-83
2022/07/27 04:10:03;;;;;;;34.00;24.17;;;;;;;20.38;65.28;98890.72;5071534;28;20562;-87
2022/07/27 04:12:29;;;;;;;26.42;21.98;;;;;;;20.37;65.01;98882.59;5068559;28;20559;-80
2022/07/27 04:14:54;;;;;;;26.40;21.17;;;;;;;20.60;64.48;98882.03;5056277;28;20029;-78
2022/07/27 04:17:20;;;;;;;32.97;22.13;;;;;;;20.72;64.42;98898.56;5054109;28;20024;-79
2022/07/27 04:19:45;;;;;;;24.98;21.08;;;;;;;20.88;64.41;98889.53;5068613;28;20628;-78
2022/07/27 04:22:10;;;;;;;29.23;20.80;;;;;;;21.18;63.56;98895.75;5060239;28;20081;-78
2022/07/27 04:24:36;;;;;;;27.95;21.77;;;;;;;21.45;62.84;98898.69;5072628;28;20028;-78
2022/07/27 04:27:01;;;;;;;37.55;22.15;;;;;;;21.65;62.33;98902.94;5072379;28;20116;-78
2022/07/27 04:29:27;;;;;;;27.35;20.88;;;;;;;21.70;62.28;98897.63;5072268;28;20048;-77
2022/07/27 04:31:53;;;;;;;30.02;21.92;;;;;;;21.86;62.03;98919.00;5072340;28;20028;-78
2022/07/27 04:34:18;;;;;;;45.10;23.17;;;;;;;21.95;62.17;98913.59;5070414;28;20483;-77
2022/07/27 04:36:44;;;;;;;37.17;23.00;;;;;;;21.95;62.07;98919.28;5066609;28;20452;-78
2022/07/27 04:39:09;;;;;;;28.23;20.85;;;;;;;22.13;61.60;98919.03;5053656;28;20566;-78
2022/07/27 04:41:35;;;;;;;40.72;23.67;;;;;;;22.13;61.87;98921.09;5072040;28;20055;-78
2022/07/27 04:44:00;;;;;;;37.38;22.58;;;;;;;22.19;61.87;98916.53;5071703;28;20042;-78
2022/07/27 04:46:28;;;;;;;33.47;23.75;;;;;;;22.43;61.26;98927.97;5072239;28;20077;-78
2022/07/27 04:48:54;;;;;;;42.58;23.27;;;;;;;22.40;60.82;98914.59;5071684;28;20459;-77
2022/07/27 04:51:19;;;;;;;30.55;21.63;;;;;;;22.51;60.34;98918.13;5071539;28;20025;-78
2022/07/27 04:53:45;;;;;;;29.70;22.75;;;;;;;22.75;59.76;98917.38;5070002;28;20024;-78
2022/07/27 04:56:10;;;;;;;31.63;21.58;;;;;;;23.01;59.05;98918.53;5071325;28;20047;-78
2022/07/27 04:58:36;;;;;;;29.17;20.75;;;;;;;23.32;57.42;98912.75;5070080;28;20063;-78
2022/07/27 05:01:02;;;;;;;30.08;21.27;;;;;;;23.54;57.20;98929.47;5066294;28;20063;-78
2022/07/27 05:03:28;;;;;;;26.23;19.15;;;;;;;23.72;56.18;98934.81;5060392;28;20032;-78
2022/07/27 05:05:54;;;;;;;25.13;21.52;;;;;;;23.70;55.55;98923.81;5070433;28;20083;-78
2022/07/27 05:08:19;;;;;;;28.77;21.42;;;;;;;23.78;55.64;98927.34;5071704;28;20078;-78
2022/07/27 05:10:45;;;;;;;23.50;21.00;;;;;;;24.02;55.40;98929.31;5056187;28;20037;-78
2022/07/27 05:13:11;;;;;;;39.45;27.42;;;;;;;24.21;55.28;98916.28;5052857;28;20032;-78
2022/07/27 05:15:37;;;;;;;33.90;22.85;;;;;;;24.22;55.12;98921.53;5049065;28;20409;-78
2022/07/27 05:18:03;;;;;;;26.25;18.90;;;;;;;24.33;54.11;98929.88;5063396;28;20025;-76
2022/07/27 05:20:28;;;;;;;29.75;21.02;;;;;;;24.32;54.05;98916.03;5062307;28;20095;-78
2022/07/27 05:22:54;;;;;;;28.52;20.40;;;;;;;24.40;54.35;98923.19;5055855;28;20021;-78
2022/07/27 05:25:20;;;;;;;32.35;20.83;;;;;;;24.45;53.66;98933.28;5063968;28;20021;-78
2022/07/27 05:27:46;;;;;;;28.52;19.20;;;;;;;24.57;53.29;98934.66;5061051;28;20023;-82
2022/07/27 05:30:12;;;;;;;34.05;21.33;;;;;;;24.61;52.79;98932.50;5054477;28;20029;-81
2022/07/27 05:32:38;;;;;;;24.30;19.23;;;;;;;24.53;52.72;98929.81;5053368;28;20021;-76
2022/07/27 05:35:04;;;;;;;41.90;18.42;;;;;;;24.57;52.02;98940.38;5065260;28;20032;-79
2022/07/27 05:37:29;;;;;;;27.50;17.83;;;;;;;24.64;52.21;98941.00;5055058;28;20485;-78
2022/07/27 05:39:55;;;;;;;29.42;18.85;;;;;;;24.73;52.23;98931.78;5069199;28;20103;-77
2022/07/27 05:42:20;;;;;;;37.90;20.50;;;;;;;24.78;52.17;98934.16;5061513;28;20032;-76
2022/07/27 05:44:45;;;;;;;31.83;20.48;;;;;;;24.89;52.19;98933.09;5067836;28;20498;-76
2022/07/27 05:47:11;;;;;;;26.25;19.33;;;;;;;24.73;52.48;98931.78;5052272;28;20139;-75
2022/07/27 05:49:37;;;;;;;30.80;20.73;;;;;;;24.87;51.92;98938.47;5057827;28;20021;-76
2022/07/27 05:52:02;;;;;;;25.60;18.98;;;;;;;25.09;51.99;98933.00;5059938;28;20028;-78
2022/07/27 05:54:28;;;;;;;24.85;18.25;;;;;;;25.15;51.54;98936.91;5071147;28;20020;-79
2022/07/27 05:56:53;;;;;;;30.30;20.27;;;;;;;25.21;51.68;98935.13;5059818;28;20032;-76
2022/07/27 05:59:18;;;;;;;37.45;19.63;;;;;;;25.27;51.13;98935.38;5067010;28;20053;-75
2022/07/27 06:01:44;;;;;;;23.02;19.20;;;;;;;25.48;50.09;98936.06;5061325;28;20050;-74
2022/07/27 06:04:09;;;;;;;30.27;20.27;;;;;;;25.60;50.09;98935.34;5066793;28;20033;-74
2022/07/27 06:09:19;;;;;;;41.28;20.00;;;;;;;25.58;49.37;98931.34;5058538;28;20043;-73
2022/07/27 06:11:44;;;;;;;23.20;18.05;;;;;;;25.64;48.94;98936.06;5050157;28;20480;-77
2022/07/27 06:14:10;;;;;;;25.50;18.33;;;;;;;25.75;48.35;98932.88;5053032;28;20055;-75
2022/07/27 06:16:35;;;;;;;24.10;18.65;;;;;;;25.84;47.52;98931.41;5071673;28;20020;-78
2022/07/27 06:19:01;;;;;;;25.17;17.70;;;;;;;25.85;46.97;98935.88;5070789;28;20029;-77
2022/07/27 06:21:27;;;;;;;22.40;17.33;;;;;;;26.00;46.90;98933.41;5070557;28;20161;-76
2022/07/27 06:23:55;;;;;;;23.90;19.40;;;;;;;26.10;46.73;98929.44;5072047;28;20036;-75
2022/07/27 06:26:21;;;;;;;21.98;17.90;;;;;;;26.30;46.78;98931.31;5078989;28;20032;-76
2022/07/27 06:28:46;;;;;;;20.80;18.42;;;;;;;26.55;46.59;98926.88;5052282;28;20417;-75
2022/07/27 06:31:13;;;;;;;27.27;20.38;;;;;;;26.89;45.80;98931.09;5052318;28;20023;-75
2022/07/27 06:33:38;;;;;;;21.13;17.33;;;;;;;26.70;45.81;98930.88;5059554;28;20387;-75
2022/07/27 06:36:04;;;;;;;24.33;17.27;;;;;;;26.90;46.10;98924.09;5060964;28;20039;-75
2022/07/27 06:38:31;;;;;;;24.55;17.88;;;;;;;26.89;45.99;98919.63;5059318;28;20024;-75
2022/07/27 06:40:57;;;;;;;20.00;17.67;;;;;;;27.24;45.20;98925.41;5069731;28;20032;-75
2022/07/27 06:43:25;;;;;;;22.17;17.38;;;;;;;27.09;44.59;98918.56;5065368;28;20025;-76
2022/07/27 06:45:50;;;;;;;21.65;16.25;;;;;;;27.25;43.42;98911.88;5052705;28;20045;-76
2022/07/27 06:48:16;;;;;;;22.55;17.30;;;;;;;27.53;43.87;98912.97;5054144;28;20067;-76
2022/07/27 06:50:42;;;;;;;20.00;17.63;;;;;;;27.71;43.76;98914.38;5052657;28;20032;-75
2022/07/27 06:53:07;;;;;;;27.02;17.42;;;;;;;27.85;43.89;98910.16;5053983;28;20021;-76
2022/07/27 06:55:33;;;;;;;20.90;16.05;;;;;;;28.01;41.66;98906.28;5059191;28;20106;-79
2022/07/27 06:57:59;;;;;;;21.50;17.00;;;;;;;27.99;41.12;98903.06;5071454;28;20387;-76
2022/07/27 07:00:24;;;;;;;18.42;16.48;;;;;;;28.13;41.83;98890.22;5063536;28;20086;-77
2022/07/27 07:02:57;;;;;;;22.70;16.30;;;;;;;28.49;41.32;98902.41;5071454;28;20024;-78
2022/07/27 07:05:24;;;;;;;19.52;17.58;;;;;;;28.64;41.66;98889.03;5071643;28;20388;-78
2022/07/27 07:07:50;;;;;;;19.13;17.05;;;;;;;28.74;40.88;98892.72;5073698;28;20021;-78
2022/07/27 07:10:16;;;;;;;26.83;18.10;;;;;;;28.93;40.94;98890.72;5073733;28;20020;-78
2022/07/27 07:12:41;;;;;;;37.33;18.33;;;;;;;28.78;39.95;98892.59;5073689;28;20505;-77
2022/07/27 07:15:07;;;;;;;18.45;16.42;;;;;;;28.85;39.00;98889.44;5072529;28;20020;-78
2022/07/27 07:17:33;;;;;;;27.52;16.60;;;;;;;28.75;38.92;98884.91;5063258;28;20025;-77
2022/07/27 07:19:58;;;;;;;20.70;16.60;;;;;;;28.63;39.28;98884.56;5053416;28;20032;-78
2022/07/27 07:22:25;;;;;;;18.60;14.82;;;;;;;28.65;38.96;98882.00;5054148;28;20106;-77
2022/07/27 07:24:50;;;;;;;18.15;16.25;;;;;;;28.93;38.74;98884.19;5053409;28;20411;-78
2022/07/27 07:27:19;;;;;;;21.73;16.00;;;;;;;29.13;39.16;98883.72;5069241;28;20036;-77
2022/07/27 07:29:45;;;;;;;18.80;16.10;;;;;;;29.07;38.95;98888.50;5072277;28;20016;-78
2022/07/27 07:32:10;;;;;;;17.63;15.70;;;;;;;29.03;37.92;98890.75;5073078;28;20024;-78
2022/07/27 07:34:35;;;;;;;30.90;17.75;;;;;;;28.99;38.50;98882.25;5061348;28;20033;-78
2022/07/27 07:37:01;;;;;;;24.30;16.55;;;;;;;29.32;37.96;98886.63;5053144;28;20561;-78
2022/07/27 07:39:27;;;;;;;23.42;16.55;;;;;;;29.24;37.00;98884.06;5057717;28;20017;-78
2022/07/27 07:41:52;;;;;;;17.98;14.75;;;;;;;29.40;36.76;98876.38;5070974;28;20111;-78
2022/07/27 07:44:18;;;;;;;18.77;15.90;;;;;;;29.62;35.64;98889.84;5072269;28;20025;-78
2022/07/27 07:46:44;;;;;;;18.58;14.18;;;;;;;29.74;36.28;98874.47;5071653;28;20095;-78
2022/07/27 07:49:10;;;;;;;17.10;13.75;;;;;;;29.90;35.83;98889.81;5073066;28;20024;-78
2022/07/27 07:51:36;;;;;;;18.25;15.57;;;;;;;29.89;35.48;98873.81;5072174;28;20065;-79
2022/07/27 07:54:01;;;;;;;21.25;14.85;;;;;;;29.47;36.34;98867.47;5071475;28;20029;-78
2022/07/27 07:56:27;;;;;;;17.70;14.38;;;;;;;29.77;35.45;98872.72;5053901;28;20025;-78
2022/07/27 07:58:52;;;;;;;14.98;13.50;;;;;;;30.09;34.38;98871.22;5054164;28;20052;-79
2022/07/27 08:01:18;;;;;;;17.15;13.82;;;;;;;30.17;34.92;98865.09;5072665;28;20445;-78
2022/07/27 08:03:43;;;;;;;16.08;14.35;;;;;;;30.33;33.86;98873.38;5072668;28;20411;-78
2022/07/27 08:06:09;;;;;;;19.58;14.52;;;;;;;30.30;34.70;98871.47;5072572;28;20498;-78
2022/07/27 08:08:34;;;;;;;21.45;14.10;;;;;;;30.37;34.65;98868.22;5062063;28;20017;-79
2022/07/27 08:11:00;;;;;;;25.83;16.40;;;;;;;30.33;34.41;98861.84;5051163;28;20111;-78
2022/07/27 08:13:25;;;;;;;18.77;14.85;;;;;;;30.24;34.95;98865.56;5063750;28;20203;-78
2022/07/27 08:15:52;;;;;;;16.40;14.70;;;;;;;30.50;33.84;98861.44;5072108;28;20560;-78
2022/07/27 08:18:18;;;;;;;16.92;15.20;;;;;;;30.80;33.37;98873.19;5072414;28;20052;-79
2022/07/27 08:20:44;;;;;;;22.48;14.98;;;;;;;30.84;34.06;98862.25;5071456;28;20056;-78
2022/07/27 08:23:11;;;;;;;21.38;15.25;;;;;;;31.04;34.49;98855.06;5072239;28;20040;-78
2022/07/27 08:25:37;;;;;;;20.33;14.15;;;;;;;30.72;34.21;98851.75;5061073;28;20093;-78
2022/07/27 08:28:03;;;;;;;15.70;14.05;;;;;;;31.20;33.30;98848.84;5066654;28;20021;-82
2022/07/27 08:30:30;;;;;;;21.20;14.75;;;;;;;31.47;32.34;98852.81;5068189;28;20431;-81
2022/07/27 08:33:01;;;;;;;19.10;15.52;;;;;;;30.99;32.79;98862.31;5069470;28;20414;-83
2022/07/27 08:35:28;;;;;;;17.55;15.80;;;;;;;31.00;32.74;98854.44;5069426;28;20102;-80
2022/07/27 08:37:54;;;;;;;17.63;15.70;;;;;;;31.06;33.86;98847.50;5067610;28;20036;-79
2022/07/27 08:40:20;;;;;;;17.88;15.93;;;;;;;31.48;32.96;98851.53;5068230;28;20024;-79
2022/07/27 08:42:46;;;;;;;17.13;14.50;;;;;;;31.97;33.37;98845.59;5052976;28;20033;-78
2022/07/27 08:45:15;;;;;;;19.98;15.82;;;;;;;32.24;32.87;98846.59;5055253;28;20058;-78
2022/07/27 08:47:41;;;;;;;23.80;14.90;;;;;;;32.05;32.35;98843.13;5061075;28;20453;-76
2022/07/27 08:50:23;;;;;;;15.60;14.05;;;;;;;32.28;32.02;98841.38;5066841;28;20036;-77
2022/07/27 08:52:49;;;;;;;20.63;14.88;;;;;;;32.71;31.98;98846.78;5069631;28;20024;-76
2022/07/27 08:55:15;;;;;;;16.38;14.70;;;;;;;32.84;30.74;98834.88;5055056;28;20165;-77
2022/07/27 08:57:40;;;;;;;19.95;15.13;;;;;;;32.89;31.14;98839.94;5068965;28;20047;-77
2022/07/27 09:00:07;;;;;;;19.08;14.43;;;;;;;33.29;31.44;98833.88;5069982;28;20555;-77
2022/07/27 09:02:33;;;;;;;16.73;14.65;;;;;;;32.93;31.42;98833.16;5070199;28;20078;-77
2022/07/27 09:04:59;;;;;;;17.63;14.80;;;;;;;33.09;30.61;98821.00;5070284;28;20024;-77
2022/07/27 09:07:30;;;;;;;16.45;14.80;;;;;;;33.21;30.83;98824.81;5071446;28;20601;-77
2022/07/27 09:09:55;;;;;;;18.17;14.35;;;;;;;33.30;30.46;98823.88;5071355;28;20028;-77
2022/07/27 09:12:27;;;;;;;23.25;16.35;;;;;;;33.47;29.98;98830.69;5065892;28;20364;-77
2022/07/27 09:15:09;;;;;;;16.63;14.93;;;;;;;33.61;30.20;98822.41;5083920;28;20020;-77
2022/07/27 09:17:35;;;;;;;16.42;14.77;;;;;;;33.75;29.73;98817.78;5063335;28;20588;-77
2022/07/27 09:20:07;;;;;;;16.58;14.20;;;;;;;34.00;29.92;98821.22;5070885;28;20041;-76
2022/07/27 09:22:43;;;;;;;16.60;14.73;;;;;;;33.96;29.19;98818.50;5066072;28;20028;-76
2022/07/27 09:25:12;;;;;;;18.75;14.27;;;;;;;33.95;29.51;98816.91;5057855;28;20039;-77
2022/07/27 09:27:38;;;;;;;16.65;13.95;;;;;;;33.97;29.05;98820.09;5063010;28;20036;-77
2022/07/27 09:30:07;;;;;;;15.38;13.77;;;;;;;34.36;29.30;98815.13;5070496;28;20025;-76
2022/07/27 09:32:33;;;;;;;14.50;13.10;;;;;;;34.44;28.48;98811.22;5069174;28;20109;-76
2022/07/27 09:35:13;;;;;;;14.02;12.73;;;;;;;34.71;28.57;98811.16;5053366;28;20080;-77
2022/07/27 09:37:39;;;;;;;15.48;13.85;;;;;;;34.59;28.69;98810.31;5069352;28;20047;-77
2022/07/27 09:40:20;;;;;;;16.15;14.48;;;;;;;34.97;28.42;98811.03;5069828;28;20024;-77
2022/07/27 09:42:47;;;;;;;19.48;13.73;;;;;;;34.98;27.86;98812.63;5060930;28;20394;-77
2022/07/27 09:45:32;;;;;;;29.13;14.88;;;;;;;35.19;28.38;98808.75;5069787;28;20036;-76
2022/07/27 09:48:10;;;;;;;17.55;14.30;;;;;;;35.46;27.90;98806.44;5070754;28;20103;-77
2022/07/27 09:50:40;;;;;;;15.95;14.10;;;;;;;35.20;27.62;98807.44;5067333;28;20471;-76
2022/07/27 09:53:13;;;;;;;14.23;12.90;;;;;;;35.23;27.90;98794.75;5069860;28;20059;-77
2022/07/27 09:55:40;;;;;;;15.73;14.05;;;;;;;35.32;28.02;98790.84;5075103;28;20043;-77
2022/07/27 09:58:06;;;;;;;15.45;13.65;;;;;;;35.47;27.82;98791.41;5074625;28;20051;-77
2022/07/27 10:00:31;;;;;;;14.63;13.25;;;;;;;35.44;27.07;98791.66;5073023;28;20028;-77
2022/07/27 10:02:57;;;;;;;22.25;14.52;;;;;;;35.51;27.82;98799.88;5066891;28;20033;-77
2022/07/27 10:05:23;;;;;;;18.40;14.18;;;;;;;35.44;27.07;98791.66;5062688;28;20388;-77
2022/07/27 10:07:53;;;;;;;20.30;14.25;;;;;;;35.33;27.81;98784.50;5072197;28;20038;-77
2022/07/27 10:10:20;;;;;;;15.98;13.20;;;;;;;35.73;27.43;98787.50;5068736;28;20032;-77
2022/07/27 10:12:47;;;;;;;16.45;12.93;;;;;;;35.87;26.58;98788.56;5055105;28;20041;-77
2022/07/27 10:15:13;;;;;;;15.90;13.00;;;;;;;35.84;26.89;98786.72;5060595;28;20452;-77
2022/07/27 10:17:41;;;;;;;13.65;12.35;;;;;;;35.75;26.36;98789.88;5067966;28;20024;-76
2022/07/27 10:20:09;;;;;;;12.98;11.77;;;;;;;35.69;25.52;98789.88;5072520;28;20048;-77
2022/07/27 10:23:07;;;;;;;13.13;11.93;;;;;;;35.87;25.64;98785.66;5053641;28;20029;-77
2022/07/27 10:25:33;;;;;;;18.13;12.30;;;;;;;36.10;25.20;98788.59;5050149;28;20491;-77
2022/07/27 10:28:16;;;;;;;13.82;12.50;;;;;;;36.38;25.47;98793.56;5073418;28;20443;-76
2022/07/27 10:30:42;;;;;;;11.95;10.77;;;;;;;36.36;24.67;98773.72;5071672;28;20028;-76
2022/07/27 10:33:15;;;;;;;12.57;10.90;;;;;;;36.29;24.56;98785.13;5063854;28;20031;-77
2022/07/27 10:35:41;;;;;;;15.57;11.05;;;;;;;36.45;25.41;98777.69;5072710;28;20086;-77
2022/07/27 10:38:14;;;;;;;18.10;11.75;;;;;;;36.43;24.35;98772.38;5073047;28;20068;-77
2022/07/27 10:40:40;;;;;;;14.20;11.38;;;;;;;36.42;24.91;98773.69;5068084;28;20036;-77
2022/07/27 10:43:18;;;;;;;14.13;12.57;;;;;;;36.86;24.31;98777.03;5054173;28;20032;-76
2022/07/27 10:45:46;;;;;;;11.95;10.85;;;;;;;36.83;24.23;98768.59;5074096;28;20395;-77
2022/07/27 10:48:41;;;;;;;10.25;9.27;;;;;;;37.00;23.81;98772.22;5060436;28;20024;-77
2022/07/27 10:51:09;;;;;;;11.15;10.05;;;;;;;37.15;22.83;98771.91;5065204;28;20044;-77
2022/07/27 10:53:40;;;;;;;11.63;9.60;;;;;;;37.15;22.02;98768.19;5057758;28;20033;-75
2022/07/27 10:56:07;;;;;;;11.82;9.68;;;;;;;37.03;24.18;98759.50;5067218;28;20050;-76
2022/07/27 10:58:32;;;;;;;10.32;9.32;;;;;;;36.99;22.85;98764.81;5063248;28;20044;-76
2022/07/27 11:00:57;;;;;;;11.48;9.55;;;;;;;37.01;22.46;98756.31;5059118;28;20479;-76
2022/07/27 11:03:25;;;;;;;11.70;8.52;;;;;;;37.28;21.46;98762.53;5054843;28;20033;-77
2022/07/27 11:06:05;;;;;;;9.70;8.25;;;;;;;37.30;20.53;98738.69;5072164;28;20119;-77
2022/07/27 11:08:36;;;;;;;12.15;8.27;;;;;;;37.44;21.02;98749.19;5057723;28;20017;-78
2022/07/27 11:11:04;;;;;;;9.10;7.88;;;;;;;37.28;21.44;98750.09;5062305;28;20070;-77
2022/07/27 11:13:33;;;;;;;8.98;7.28;;;;;;;37.43;19.38;98738.09;5056592;28;20031;-77
2022/07/27 11:16:03;;;;;;;12.75;7.00;;;;;;;37.50;19.10;98749.16;5066395;28;20025;-78
2022/07/27 11:18:38;;;;;;;8.30;7.50;;;;;;;37.66;18.82;98744.56;5070030;28;20454;-77
2022/07/27 11:21:13;;;;;;;9.50;7.38;;;;;;;37.59;18.82;98739.31;5063393;28;20052;-77
2022/07/27 11:23:39;;;;;;;13.95;7.63;;;;;;;37.44;17.92;98731.69;5056570;28;20039;-77